sensor_id;sensor_type;location;lat;lon;timestamp;P1;P2;P0
44933;PMS3003;30667;43.614;1.442;2022-11-15T00:00:46;8.20;7.80;3.60
44933;PMS3003;30667;43.614;1.442;2022-11-15T00:03:15;8.60;7.40;3.60
44933;PMS3003;30667;43.614;1.442;2022-11-15T00:05:42;8.40;7.60;3.60
44933;PMS3003;30667;43.614;1.442;2022-11-15T00:08:08;11.00;8.50;3.50
44933;PMS3003;30667;43.614;1.442;2022-11-15T00:10:33;9.50;8.25;4.00
44933;PMS3003;30667;43.614;1.442;2022-11-15T00:12:59;8.75;8.25;3.50
44933;PMS3003;30667;43.614;1.442;2022-11-15T00:15:24;8.00;7.75;4.00
44933;PMS3003;30667;43.614;1.442;2022-11-15T00:17:50;8.75;8.50;4.25
44933;PMS3003;30667;43.614;1.442;2022-11-15T00:20:16;8.50;7.75;3.75
44933;PMS3003;30667;43.614;1.442;2022-11-15T00:22:42;8.80;8.00;4.00
44933;PMS3003;30667;43.614;1.442;2022-11-15T00:25:07;7.00;7.00;3.00
44933;PMS3003;30667;43.614;1.442;2022-11-15T00:27:33;8.50;8.50;5.50
44933;PMS3003;30667;43.614;1.442;2022-11-15T00:29:58;9.00;8.00;3.50
44933;PMS3003;30667;43.614;1.442;2022-11-15T00:32:24;9.50;8.25;4.25
44933;PMS3003;30667;43.614;1.442;2022-11-15T00:34:49;9.25;8.25;3.25
44933;PMS3003;30667;43.614;1.442;2022-11-15T00:37:14;8.50;8.00;4.00
44933;PMS3003;30667;43.614;1.442;2022-11-15T00:39:40;9.25;8.00;3.25
44933;PMS3003;30667;43.614;1.442;2022-11-15T00:42:05;10.00;9.00;4.00
44933;PMS3003;30667;43.614;1.442;2022-11-15T00:44:30;10.25;10.25;6.00
44933;PMS3003;30667;43.614;1.442;2022-11-15T00:46:56;12.25;12.00;7.00
44933;PMS3003;30667;43.614;1.442;2022-11-15T00:49:21;12.50;11.75;7.00
44933;PMS3003;30667;43.614;1.442;2022-11-15T00:51:47;13.00;13.00;7.50
44933;PMS3003;30667;43.614;1.442;2022-11-15T00:54:12;15.00;15.00;8.75
44933;PMS3003;30667;43.614;1.442;2022-11-15T00:56:37;15.25;15.00;9.00
44933;PMS3003;30667;43.614;1.442;2022-11-15T00:59:03;13.00;13.00;8.00
44933;PMS3003;30667;43.614;1.442;2022-11-15T01:01:28;13.25;12.00;6.00
44933;PMS3003;30667;43.614;1.442;2022-11-15T01:03:53;13.00;11.00;6.00
44933;PMS3003;30667;43.614;1.442;2022-11-15T01:06:19;12.00;11.00;6.25
44933;PMS3003;30667;43.614;1.442;2022-11-15T01:08:44;13.25;12.25;6.25
44933;PMS3003;30667;43.614;1.442;2022-11-15T01:11:10;12.00;10.00;6.00
44933;PMS3003;30667;43.614;1.442;2022-11-15T01:13:37;10.20;9.40;4.00
44933;PMS3003;30667;43.614;1.442;2022-11-15T01:16:10;9.00;9.00;4.20
44933;PMS3003;30667;43.614;1.442;2022-11-15T01:18:39;9.60;9.60;5.80
44933;PMS3003;30667;43.614;1.442;2022-11-15T01:21:06;10.00;9.00;4.00
44933;PMS3003;30667;43.614;1.442;2022-11-15T01:23:33;13.40;11.20;4.00
44933;PMS3003;30667;43.614;1.442;2022-11-15T01:25:59;10.75;10.00;6.00
44933;PMS3003;30667;43.614;1.442;2022-11-15T01:28:25;11.00;9.00;5.40
44933;PMS3003;30667;43.614;1.442;2022-11-15T01:30:57;12.20;10.00;5.00
44933;PMS3003;30667;43.614;1.442;2022-11-15T01:33:23;12.60;10.80;6.80
44933;PMS3003;30667;43.614;1.442;2022-11-15T01:35:48;10.75;10.00;5.25
44933;PMS3003;30667;43.614;1.442;2022-11-15T01:38:14;9.00;8.50;4.00
44933;PMS3003;30667;43.614;1.442;2022-11-15T01:40:39;9.50;8.75;3.50
44933;PMS3003;30667;43.614;1.442;2022-11-15T01:48:51;9.80;8.40;4.80
44933;PMS3003;30667;43.614;1.442;2022-11-15T01:51:19;9.60;9.00;5.20
44933;PMS3003;30667;43.614;1.442;2022-11-15T01:53:49;11.00;10.40;4.80
44933;PMS3003;30667;43.614;1.442;2022-11-15T01:56:20;11.80;11.60;7.00
44933;PMS3003;30667;43.614;1.442;2022-11-15T01:58:49;11.80;10.40;6.20
44933;PMS3003;30667;43.614;1.442;2022-11-15T02:01:16;11.20;10.40;6.80
44933;PMS3003;30667;43.614;1.442;2022-11-15T02:03:45;13.25;11.50;7.00
44933;PMS3003;30667;43.614;1.442;2022-11-15T02:06:16;12.80;12.20;6.80
44933;PMS3003;30667;43.614;1.442;2022-11-15T02:08:43;11.20;11.20;6.40
44933;PMS3003;30667;43.614;1.442;2022-11-15T02:11:09;13.00;13.00;8.40
44933;PMS3003;30667;43.614;1.442;2022-11-15T02:13:35;15.25;15.00;7.75
44933;PMS3003;30667;43.614;1.442;2022-11-15T02:16:05;15.40;14.00;8.60
44933;PMS3003;30667;43.614;1.442;2022-11-15T02:21:40;16.20;13.80;8.00
44933;PMS3003;30667;43.614;1.442;2022-11-15T02:29:54;14.00;13.20;7.00
44933;PMS3003;30667;43.614;1.442;2022-11-15T02:32:35;17.40;13.60;7.60
44933;PMS3003;30667;43.614;1.442;2022-11-15T02:35:45;12.80;12.00;7.00
44933;PMS3003;30667;43.614;1.442;2022-11-15T02:38:11;13.00;12.00;7.00
44933;PMS3003;30667;43.614;1.442;2022-11-15T02:40:54;12.20;12.20;6.00
44933;PMS3003;30667;43.614;1.442;2022-11-15T02:43:34;10.60;10.60;5.60
44933;PMS3003;30667;43.614;1.442;2022-11-15T02:46:37;12.20;11.60;6.60
44933;PMS3003;30667;43.614;1.442;2022-11-15T02:49:26;15.80;12.60;6.40
44933;PMS3003;30667;43.614;1.442;2022-11-15T02:51:54;13.80;12.80;7.00
44933;PMS3003;30667;43.614;1.442;2022-11-15T02:54:28;9.80;9.80;6.00
44933;PMS3003;30667;43.614;1.442;2022-11-15T02:56:58;11.40;10.60;6.60
44933;PMS3003;30667;43.614;1.442;2022-11-15T03:02:25;11.40;9.40;6.00
44933;PMS3003;30667;43.614;1.442;2022-11-15T03:04:56;12.00;9.40;4.80
44933;PMS3003;30667;43.614;1.442;2022-11-15T03:10:46;13.00;12.20;6.20
44933;PMS3003;30667;43.614;1.442;2022-11-15T03:16:26;11.20;11.00;6.40
44933;PMS3003;30667;43.614;1.442;2022-11-15T03:19:03;8.40;8.00;5.60
44933;PMS3003;30667;43.614;1.442;2022-11-15T03:21:35;9.00;8.40;5.20
44933;PMS3003;30667;43.614;1.442;2022-11-15T03:24:05;11.60;10.80;4.00
44933;PMS3003;30667;43.614;1.442;2022-11-15T03:26:33;13.40;11.00;5.60
44933;PMS3003;30667;43.614;1.442;2022-11-15T03:31:43;9.20;9.00;4.40
44933;PMS3003;30667;43.614;1.442;2022-11-15T03:36:46;9.00;8.80;4.40
44933;PMS3003;30667;43.614;1.442;2022-11-15T03:39:14;10.60;9.00;4.80
44933;PMS3003;30667;43.614;1.442;2022-11-15T03:42:23;9.75;9.25;3.00
44933;PMS3003;30667;43.614;1.442;2022-11-15T03:49:51;8.40;8.00;3.80
44933;PMS3003;30667;43.614;1.442;2022-11-15T03:52:21;11.60;8.80;4.00
44933;PMS3003;30667;43.614;1.442;2022-11-15T03:54:56;9.80;8.00;3.40
44933;PMS3003;30667;43.614;1.442;2022-11-15T03:57:21;9.00;9.00;5.40
44933;PMS3003;30667;43.614;1.442;2022-11-15T03:59:47;11.20;9.80;5.20
44933;PMS3003;30667;43.614;1.442;2022-11-15T04:02:13;8.25;7.50;3.00
44933;PMS3003;30667;43.614;1.442;2022-11-15T04:04:39;9.20;9.20;4.00
44933;PMS3003;30667;43.614;1.442;2022-11-15T04:07:05;9.00;8.00;3.00
44933;PMS3003;30667;43.614;1.442;2022-11-15T04:09:30;12.80;10.20;4.00
44933;PMS3003;30667;43.614;1.442;2022-11-15T04:11:56;9.00;8.50;4.00
44933;PMS3003;30667;43.614;1.442;2022-11-15T04:14:21;10.00;9.50;4.00
44933;PMS3003;30667;43.614;1.442;2022-11-15T04:16:47;10.75;9.25;4.00
44933;PMS3003;30667;43.614;1.442;2022-11-15T04:19:12;13.00;9.50;4.75
44933;PMS3003;30667;43.614;1.442;2022-11-15T04:21:56;12.60;9.00;4.00
44933;PMS3003;30667;43.614;1.442;2022-11-15T04:24:39;9.80;9.20;4.00
44933;PMS3003;30667;43.614;1.442;2022-11-15T04:27:05;10.25;9.50;4.50
44933;PMS3003;30667;43.614;1.442;2022-11-15T04:29:30;11.50;9.50;4.00
44933;PMS3003;30667;43.614;1.442;2022-11-15T04:32:02;12.80;11.20;4.40
44933;PMS3003;30667;43.614;1.442;2022-11-15T04:34:29;10.00;9.00;4.00
44933;PMS3003;30667;43.614;1.442;2022-11-15T04:36:54;14.00;11.50;4.00
44933;PMS3003;30667;43.614;1.442;2022-11-15T04:39:38;10.60;9.40;4.80
44933;PMS3003;30667;43.614;1.442;2022-11-15T04:42:08;9.80;9.80;4.00
44933;PMS3003;30667;43.614;1.442;2022-11-15T04:44:34;12.80;11.00;5.80
44933;PMS3003;30667;43.614;1.442;2022-11-15T04:47:00;10.00;8.75;4.00
44933;PMS3003;30667;43.614;1.442;2022-11-15T04:49:25;10.00;9.00;5.80
44933;PMS3003;30667;43.614;1.442;2022-11-15T04:51:51;9.75;9.75;4.75
44933;PMS3003;30667;43.614;1.442;2022-11-15T04:54:16;10.50;9.00;6.00
44933;PMS3003;30667;43.614;1.442;2022-11-15T04:56:42;11.50;10.00;6.00
44933;PMS3003;30667;43.614;1.442;2022-11-15T04:59:07;13.00;10.25;6.00
44933;PMS3003;30667;43.614;1.442;2022-11-15T05:01:33;9.25;8.50;4.00
44933;PMS3003;30667;43.614;1.442;2022-11-15T05:03:58;12.50;11.25;7.00
44933;PMS3003;30667;43.614;1.442;2022-11-15T05:06:42;13.40;11.00;6.80
44933;PMS3003;30667;43.614;1.442;2022-11-15T05:09:07;13.50;11.75;6.00
44933;PMS3003;30667;43.614;1.442;2022-11-15T05:11:33;12.50;10.50;4.00
44933;PMS3003;30667;43.614;1.442;2022-11-15T05:13:58;11.75;9.75;6.25
44933;PMS3003;30667;43.614;1.442;2022-11-15T05:16:24;10.00;10.00;6.00
44933;PMS3003;30667;43.614;1.442;2022-11-15T05:18:53;10.00;10.00;6.00
44933;PMS3003;30667;43.614;1.442;2022-11-15T05:21:18;13.60;10.00;6.20
44933;PMS3003;30667;43.614;1.442;2022-11-15T05:23:44;11.50;10.00;4.50
44933;PMS3003;30667;43.614;1.442;2022-11-15T05:26:09;12.25;9.25;5.75
44933;PMS3003;30667;43.614;1.442;2022-11-15T05:28:35;11.50;10.25;6.00
44933;PMS3003;30667;43.614;1.442;2022-11-15T05:31:02;10.20;10.20;5.80
44933;PMS3003;30667;43.614;1.442;2022-11-15T05:33:32;15.40;11.60;5.80
44933;PMS3003;30667;43.614;1.442;2022-11-15T05:38:37;13.20;12.60;6.80
44933;PMS3003;30667;43.614;1.442;2022-11-15T05:41:03;14.00;12.50;6.00
44933;PMS3003;30667;43.614;1.442;2022-11-15T05:43:30;17.60;12.00;5.60
44933;PMS3003;30667;43.614;1.442;2022-11-15T05:45:59;11.80;10.60;6.80
44933;PMS3003;30667;43.614;1.442;2022-11-15T05:48:28;16.40;14.00;7.00
44933;PMS3003;30667;43.614;1.442;2022-11-15T05:50:53;12.00;10.00;6.00
44933;PMS3003;30667;43.614;1.442;2022-11-15T05:53:19;13.00;11.75;6.50
44933;PMS3003;30667;43.614;1.442;2022-11-15T05:55:48;14.20;13.20;7.00
44933;PMS3003;30667;43.614;1.442;2022-11-15T05:58:13;12.50;11.00;7.00
44933;PMS3003;30667;43.614;1.442;2022-11-15T06:00:39;11.50;10.50;4.00
44933;PMS3003;30667;43.614;1.442;2022-11-15T06:03:04;15.00;12.25;7.25
44933;PMS3003;30667;43.614;1.442;2022-11-15T06:05:30;14.00;13.25;7.00
44933;PMS3003;30667;43.614;1.442;2022-11-15T06:07:58;14.50;13.00;7.75
44933;PMS3003;30667;43.614;1.442;2022-11-15T06:10:24;16.60;13.00;6.60
44933;PMS3003;30667;43.614;1.442;2022-11-15T06:12:59;15.25;13.00;8.00
44933;PMS3003;30667;43.614;1.442;2022-11-15T06:15:28;14.60;12.80;8.00
44933;PMS3003;30667;43.614;1.442;2022-11-15T06:17:57;14.25;13.50;7.25
44933;PMS3003;30667;43.614;1.442;2022-11-15T06:20:23;13.80;11.80;6.20
44933;PMS3003;30667;43.614;1.442;2022-11-15T06:22:49;17.00;14.40;8.00
44933;PMS3003;30667;43.614;1.442;2022-11-15T06:25:14;15.75;14.50;7.50
44933;PMS3003;30667;43.614;1.442;2022-11-15T06:27:40;13.50;10.75;5.50
44933;PMS3003;30667;43.614;1.442;2022-11-15T06:30:05;11.50;11.50;7.00
44933;PMS3003;30667;43.614;1.442;2022-11-15T06:32:31;13.60;11.40;7.00
44933;PMS3003;30667;43.614;1.442;2022-11-15T06:34:56;16.00;13.00;8.00
44933;PMS3003;30667;43.614;1.442;2022-11-15T06:37:22;14.50;11.00;7.00
44933;PMS3003;30667;43.614;1.442;2022-11-15T06:39:47;15.00;14.25;9.00
44933;PMS3003;30667;43.614;1.442;2022-11-15T06:42:12;15.00;14.25;8.25
44933;PMS3003;30667;43.614;1.442;2022-11-15T06:44:38;13.75;13.00;8.00
44933;PMS3003;30667;43.614;1.442;2022-11-15T06:47:03;14.25;14.25;8.00
44933;PMS3003;30667;43.614;1.442;2022-11-15T06:49:29;13.25;12.75;6.75
44933;PMS3003;30667;43.614;1.442;2022-11-15T06:51:54;14.25;13.00;7.50
44933;PMS3003;30667;43.614;1.442;2022-11-15T06:54:20;16.00;15.50;8.50
44933;PMS3003;30667;43.614;1.442;2022-11-15T06:56:46;14.00;11.00;5.00
44933;PMS3003;30667;43.614;1.442;2022-11-15T06:59:11;11.25;11.25;5.25
44933;PMS3003;30667;43.614;1.442;2022-11-15T07:01:37;12.75;12.00;6.00
44933;PMS3003;30667;43.614;1.442;2022-11-15T07:04:02;15.00;15.00;9.00
44933;PMS3003;30667;43.614;1.442;2022-11-15T07:06:27;15.25;14.00;8.00
44933;PMS3003;30667;43.614;1.442;2022-11-15T07:08:53;15.00;14.50;8.25
44933;PMS3003;30667;43.614;1.442;2022-11-15T07:11:18;17.25;13.00;6.75
44933;PMS3003;30667;43.614;1.442;2022-11-15T07:13:44;11.75;11.75;7.00
44933;PMS3003;30667;43.614;1.442;2022-11-15T07:16:09;14.75;13.00;7.50
44933;PMS3003;30667;43.614;1.442;2022-11-15T07:18:38;15.40;14.60;8.00
44933;PMS3003;30667;43.614;1.442;2022-11-15T07:21:06;16.80;13.80;7.60
44933;PMS3003;30667;43.614;1.442;2022-11-15T07:23:35;14.20;13.20;7.60
44933;PMS3003;30667;43.614;1.442;2022-11-15T07:26:01;12.60;11.00;6.80
44933;PMS3003;30667;43.614;1.442;2022-11-15T07:28:27;11.00;11.00;5.25
44933;PMS3003;30667;43.614;1.442;2022-11-15T07:30:52;14.50;14.00;8.25
44933;PMS3003;30667;43.614;1.442;2022-11-15T07:33:18;16.00;13.25;7.50
44933;PMS3003;30667;43.614;1.442;2022-11-15T07:35:43;16.50;14.00;8.00
44933;PMS3003;30667;43.614;1.442;2022-11-15T07:38:11;12.80;11.60;6.80
44933;PMS3003;30667;43.614;1.442;2022-11-15T07:40:36;11.25;11.00;5.50
44933;PMS3003;30667;43.614;1.442;2022-11-15T07:43:03;13.00;11.75;7.25
44933;PMS3003;30667;43.614;1.442;2022-11-15T07:45:31;11.60;11.60;7.00
44933;PMS3003;30667;43.614;1.442;2022-11-15T07:47:59;15.20;14.00;8.00
44933;PMS3003;30667;43.614;1.442;2022-11-15T07:50:25;12.60;11.40;6.00
44933;PMS3003;30667;43.614;1.442;2022-11-15T07:52:55;11.60;9.40;4.80
44933;PMS3003;30667;43.614;1.442;2022-11-15T07:55:22;13.80;9.60;5.40
44933;PMS3003;30667;43.614;1.442;2022-11-15T07:57:48;11.00;9.00;3.20
44933;PMS3003;30667;43.614;1.442;2022-11-15T08:00:14;12.00;10.00;5.00
44933;PMS3003;30667;43.614;1.442;2022-11-15T08:02:40;12.00;11.00;5.40
44933;PMS3003;30667;43.614;1.442;2022-11-15T08:05:05;12.00;9.75;4.00
44933;PMS3003;30667;43.614;1.442;2022-11-15T08:07:31;15.75;13.00;6.00
44933;PMS3003;30667;43.614;1.442;2022-11-15T08:09:57;15.25;14.50;7.75
44933;PMS3003;30667;43.614;1.442;2022-11-15T08:12:23;15.60;13.60;7.40
44933;PMS3003;30667;43.614;1.442;2022-11-15T08:14:49;11.75;11.25;6.00
44933;PMS3003;30667;43.614;1.442;2022-11-15T08:17:14;10.75;9.75;5.25
44933;PMS3003;30667;43.614;1.442;2022-11-15T08:19:39;12.75;12.00;7.75
44933;PMS3003;30667;43.614;1.442;2022-11-15T08:22:05;12.75;11.25;6.75
44933;PMS3003;30667;43.614;1.442;2022-11-15T08:24:30;14.75;12.25;7.50
44933;PMS3003;30667;43.614;1.442;2022-11-15T08:26:55;17.25;14.25;8.00
44933;PMS3003;30667;43.614;1.442;2022-11-15T08:29:21;14.75;10.50;5.50
44933;PMS3003;30667;43.614;1.442;2022-11-15T08:31:46;12.75;12.50;8.00
44933;PMS3003;30667;43.614;1.442;2022-11-15T08:34:12;9.50;9.50;5.00
44933;PMS3003;30667;43.614;1.442;2022-11-15T08:36:37;10.25;10.00;4.25
44933;PMS3003;30667;43.614;1.442;2022-11-15T08:39:03;4.75;4.75;2.00
44933;PMS3003;30667;43.614;1.442;2022-11-15T08:41:32;11.75;11.25;6.25
44933;PMS3003;30667;43.614;1.442;2022-11-15T08:44:00;9.80;9.80;5.00
44933;PMS3003;30667;43.614;1.442;2022-11-15T08:46:26;13.00;12.50;8.00
44933;PMS3003;30667;43.614;1.442;2022-11-15T08:48:51;15.00;14.00;9.00
44933;PMS3003;30667;43.614;1.442;2022-11-15T08:51:17;12.00;12.00;8.25
44933;PMS3003;30667;43.614;1.442;2022-11-15T08:53:42;11.50;11.00;6.00
44933;PMS3003;30667;43.614;1.442;2022-11-15T08:56:09;11.25;11.00;6.00
44933;PMS3003;30667;43.614;1.442;2022-11-15T08:58:36;14.40;12.80;6.00
44933;PMS3003;30667;43.614;1.442;2022-11-15T09:01:02;17.20;14.00;7.60
44933;PMS3003;30667;43.614;1.442;2022-11-15T09:03:28;16.80;14.00;8.60
44933;PMS3003;30667;43.614;1.442;2022-11-15T09:05:54;14.50;13.75;8.50
44933;PMS3003;30667;43.614;1.442;2022-11-15T09:08:24;15.80;13.00;7.20
44933;PMS3003;30667;43.614;1.442;2022-11-15T09:10:49;13.80;13.20;8.80
44933;PMS3003;30667;43.614;1.442;2022-11-15T09:13:15;15.00;13.50;8.75
44933;PMS3003;30667;43.614;1.442;2022-11-15T09:15:41;14.00;12.75;8.00
44933;PMS3003;30667;43.614;1.442;2022-11-15T09:18:06;12.00;11.75;6.00
44933;PMS3003;30667;43.614;1.442;2022-11-15T09:20:31;14.25;14.25;9.50
44933;PMS3003;30667;43.614;1.442;2022-11-15T09:23:00;16.50;11.75;6.00
44933;PMS3003;30667;43.614;1.442;2022-11-15T09:25:26;13.40;12.20;7.80
44933;PMS3003;30667;43.614;1.442;2022-11-15T09:27:52;16.80;16.20;9.00
44933;PMS3003;30667;43.614;1.442;2022-11-15T09:30:18;13.25;12.75;7.00
44933;PMS3003;30667;43.614;1.442;2022-11-15T09:32:43;12.25;11.50;6.00
44933;PMS3003;30667;43.614;1.442;2022-11-15T09:35:08;14.25;12.00;7.00
44933;PMS3003;30667;43.614;1.442;2022-11-15T09:37:34;13.00;12.25;8.00
44933;PMS3003;30667;43.614;1.442;2022-11-15T09:39:59;13.25;13.00;8.50
44933;PMS3003;30667;43.614;1.442;2022-11-15T09:50:16;9.60;9.40;4.60
44933;PMS3003;30667;43.614;1.442;2022-11-15T09:52:52;14.00;13.00;7.80
44933;PMS3003;30667;43.614;1.442;2022-11-15T09:55:20;16.60;14.40;9.00
44933;PMS3003;30667;43.614;1.442;2022-11-15T09:58:10;16.40;15.00;9.20
44933;PMS3003;30667;43.614;1.442;2022-11-15T10:00:50;16.00;14.60;8.40
44933;PMS3003;30667;43.614;1.442;2022-11-15T10:05:55;12.80;12.20;7.00
44933;PMS3003;30667;43.614;1.442;2022-11-15T10:11:05;16.60;14.20;8.40
44933;PMS3003;30667;43.614;1.442;2022-11-15T10:13:34;16.20;13.60;8.80
44933;PMS3003;30667;43.614;1.442;2022-11-15T10:16:21;13.40;12.40;8.20
44933;PMS3003;30667;43.614;1.442;2022-11-15T10:22:38;17.80;14.60;7.60
44933;PMS3003;30667;43.614;1.442;2022-11-15T10:27:41;13.00;11.25;6.25
44933;PMS3003;30667;43.614;1.442;2022-11-15T10:30:13;10.00;9.80;4.80
44933;PMS3003;30667;43.614;1.442;2022-11-15T10:32:42;10.20;8.40;4.40
44933;PMS3003;30667;43.614;1.442;2022-11-15T10:37:44;12.60;10.00;4.40
44933;PMS3003;30667;43.614;1.442;2022-11-15T10:40:15;13.25;12.25;6.00
44933;PMS3003;30667;43.614;1.442;2022-11-15T10:42:45;13.20;13.00;5.80
44933;PMS3003;30667;43.614;1.442;2022-11-15T10:45:22;13.00;12.00;6.75
44933;PMS3003;30667;43.614;1.442;2022-11-15T10:48:18;12.80;12.60;7.20
44933;PMS3003;30667;43.614;1.442;2022-11-15T10:50:43;12.00;11.00;5.40
44933;PMS3003;30667;43.614;1.442;2022-11-15T10:53:21;12.60;11.20;6.00
44933;PMS3003;30667;43.614;1.442;2022-11-15T10:56:03;12.60;11.20;5.00
44933;PMS3003;30667;43.614;1.442;2022-11-15T11:03:59;13.60;13.00;8.20
44933;PMS3003;30667;43.614;1.442;2022-11-15T11:06:26;12.00;10.80;5.60
44933;PMS3003;30667;43.614;1.442;2022-11-15T11:08:54;13.00;12.00;7.00
44933;PMS3003;30667;43.614;1.442;2022-11-15T11:11:26;12.00;10.60;5.00
44933;PMS3003;30667;43.614;1.442;2022-11-15T11:14:12;11.60;10.60;5.60
44933;PMS3003;30667;43.614;1.442;2022-11-15T11:16:43;13.40;11.80;6.40
44933;PMS3003;30667;43.614;1.442;2022-11-15T11:22:01;13.20;12.20;6.40
44933;PMS3003;30667;43.614;1.442;2022-11-15T11:24:48;12.60;11.80;6.00
44933;PMS3003;30667;43.614;1.442;2022-11-15T11:32:33;14.00;13.60;9.60
44933;PMS3003;30667;43.614;1.442;2022-11-15T11:40:54;113.20;100.60;69.60
44933;PMS3003;30667;43.614;1.442;2022-11-15T11:55:23;39.20;33.80;24.00
44933;PMS3003;30667;43.614;1.442;2022-11-15T11:58:04;35.20;33.80;21.20
44933;PMS3003;30667;43.614;1.442;2022-11-15T12:00:43;43.25;37.00;24.75
44933;PMS3003;30667;43.614;1.442;2022-11-15T12:17:29;18.40;16.60;11.00
44933;PMS3003;30667;43.614;1.442;2022-11-15T12:19:59;49.80;40.00;26.20
44933;PMS3003;30667;43.614;1.442;2022-11-15T12:22:33;54.00;43.50;29.50
44933;PMS3003;30667;43.614;1.442;2022-11-15T12:27:40;26.60;22.80;16.00
44933;PMS3003;30667;43.614;1.442;2022-11-15T12:30:28;58.50;48.25;32.75
44933;PMS3003;30667;43.614;1.442;2022-11-15T12:33:15;32.80;29.00;19.20
44933;PMS3003;30667;43.614;1.442;2022-11-15T12:36:54;24.20;21.00;12.60
44933;PMS3003;30667;43.614;1.442;2022-11-15T12:38:56;61.00;50.00;35.00
44933;PMS3003;30667;43.614;1.442;2022-11-15T12:41:34;66.40;52.60;35.80
44933;PMS3003;30667;43.614;1.442;2022-11-15T12:47:03;20.60;18.00;11.00
44933;PMS3003;30667;43.614;1.442;2022-11-15T13:05:52;20.20;18.20;11.20
44933;PMS3003;30667;43.614;1.442;2022-11-15T13:07:59;31.40;25.80;18.40
44933;PMS3003;30667;43.614;1.442;2022-11-15T13:12:53;18.75;17.75;11.25
44933;PMS3003;30667;43.614;1.442;2022-11-15T13:15:38;20.80;19.80;12.00
44933;PMS3003;30667;43.614;1.442;2022-11-15T13:18:36;21.80;21.00;14.40
44933;PMS3003;30667;43.614;1.442;2022-11-15T13:21:04;19.00;17.00;11.00
44933;PMS3003;30667;43.614;1.442;2022-11-15T13:24:03;16.20;15.60;10.00
44933;PMS3003;30667;43.614;1.442;2022-11-15T13:26:29;17.80;16.00;10.00
44933;PMS3003;30667;43.614;1.442;2022-11-15T13:28:56;15.40;14.80;9.20
44933;PMS3003;30667;43.614;1.442;2022-11-15T13:31:26;18.75;14.50;9.00
44933;PMS3003;30667;43.614;1.442;2022-11-15T13:33:52;20.40;20.00;13.20
44933;PMS3003;30667;43.614;1.442;2022-11-15T13:36:27;18.60;17.20;12.00
44933;PMS3003;30667;43.614;1.442;2022-11-15T13:39:02;18.20;16.60;10.60
44933;PMS3003;30667;43.614;1.442;2022-11-15T13:41:35;31.80;28.60;19.60
44933;PMS3003;30667;43.614;1.442;2022-11-15T13:44:02;20.00;17.20;12.00
44933;PMS3003;30667;43.614;1.442;2022-11-15T13:46:29;20.00;19.00;13.00
44933;PMS3003;30667;43.614;1.442;2022-11-15T13:49:01;22.80;22.40;16.60
44933;PMS3003;30667;43.614;1.442;2022-11-15T13:51:35;31.60;30.40;21.60
44933;PMS3003;30667;43.614;1.442;2022-11-15T13:56:39;25.50;25.25;17.75
44933;PMS3003;30667;43.614;1.442;2022-11-15T13:59:08;34.20;31.00;19.60
44933;PMS3003;30667;43.614;1.442;2022-11-15T14:01:35;20.60;19.40;13.00
44933;PMS3003;30667;43.614;1.442;2022-11-15T14:04:01;15.00;14.60;8.80
44933;PMS3003;30667;43.614;1.442;2022-11-15T14:06:28;17.40;16.20;10.20
44933;PMS3003;30667;43.614;1.442;2022-11-15T14:09:00;18.00;14.00;9.40
44933;PMS3003;30667;43.614;1.442;2022-11-15T14:11:29;16.60;15.00;11.00
44933;PMS3003;30667;43.614;1.442;2022-11-15T14:14:13;17.20;14.80;9.00
44933;PMS3003;30667;43.614;1.442;2022-11-15T14:19:56;15.80;15.40;10.00
44933;PMS3003;30667;43.614;1.442;2022-11-15T14:25:04;18.00;15.80;9.60
44933;PMS3003;30667;43.614;1.442;2022-11-15T14:27:39;18.20;16.40;9.60
44933;PMS3003;30667;43.614;1.442;2022-11-15T14:30:06;17.20;16.20;11.00
44933;PMS3003;30667;43.614;1.442;2022-11-15T14:32:41;17.40;14.80;9.60
44933;PMS3003;30667;43.614;1.442;2022-11-15T14:35:12;17.60;14.80;10.00
44933;PMS3003;30667;43.614;1.442;2022-11-15T14:37:42;15.20;14.40;10.00
44933;PMS3003;30667;43.614;1.442;2022-11-15T14:40:08;15.00;15.00;10.00
44933;PMS3003;30667;43.614;1.442;2022-11-15T14:42:37;17.60;15.20;10.00
44933;PMS3003;30667;43.614;1.442;2022-11-15T14:45:09;16.60;15.20;9.20
44933;PMS3003;30667;43.614;1.442;2022-11-15T14:47:38;15.40;15.40;11.00
44933;PMS3003;30667;43.614;1.442;2022-11-15T14:50:03;16.50;15.00;10.00
44933;PMS3003;30667;43.614;1.442;2022-11-15T14:52:30;17.40;14.00;9.60
44933;PMS3003;30667;43.614;1.442;2022-11-15T14:55:01;23.00;19.80;12.40
44933;PMS3003;30667;43.614;1.442;2022-11-15T14:57:29;20.00;19.40;14.00
44933;PMS3003;30667;43.614;1.442;2022-11-15T14:59:54;33.00;31.00;19.00
44933;PMS3003;30667;43.614;1.442;2022-11-15T15:02:21;32.00;30.50;20.00
44933;PMS3003;30667;43.614;1.442;2022-11-15T15:04:48;39.40;34.00;22.00
44933;PMS3003;30667;43.614;1.442;2022-11-15T15:07:14;42.75;35.75;24.75
44933;PMS3003;30667;43.614;1.442;2022-11-15T15:09:40;42.00;36.00;25.50
44933;PMS3003;30667;43.614;1.442;2022-11-15T15:12:22;29.80;26.00;17.20
44933;PMS3003;30667;43.614;1.442;2022-11-15T15:14:49;38.40;33.00;20.40
44933;PMS3003;30667;43.614;1.442;2022-11-15T15:17:15;23.20;21.60;16.00
44933;PMS3003;30667;43.614;1.442;2022-11-15T15:19:41;21.60;20.60;12.80
44933;PMS3003;30667;43.614;1.442;2022-11-15T15:22:11;21.00;20.00;13.25
44933;PMS3003;30667;43.614;1.442;2022-11-15T15:24:40;24.40;21.00;14.00
44933;PMS3003;30667;43.614;1.442;2022-11-15T15:27:06;22.50;20.00;12.75
44933;PMS3003;30667;43.614;1.442;2022-11-15T15:29:31;22.25;19.75;13.00
44933;PMS3003;30667;43.614;1.442;2022-11-15T15:31:56;19.50;18.50;11.75
44933;PMS3003;30667;43.614;1.442;2022-11-15T15:34:22;18.00;17.00;11.00
44933;PMS3003;30667;43.614;1.442;2022-11-15T15:36:47;19.25;17.00;11.00
44933;PMS3003;30667;43.614;1.442;2022-11-15T15:39:13;19.75;17.00;10.50
44933;PMS3003;30667;43.614;1.442;2022-11-15T15:41:38;21.50;21.00;14.00
44933;PMS3003;30667;43.614;1.442;2022-11-15T15:44:03;29.25;28.75;20.50
44933;PMS3003;30667;43.614;1.442;2022-11-15T15:46:29;19.75;19.50;13.75
44933;PMS3003;30667;43.614;1.442;2022-11-15T15:48:54;18.50;17.25;11.75
44933;PMS3003;30667;43.614;1.442;2022-11-15T15:51:20;19.00;18.00;11.50
44933;PMS3003;30667;43.614;1.442;2022-11-15T15:53:45;19.50;18.50;12.00
44933;PMS3003;30667;43.614;1.442;2022-11-15T15:56:11;17.40;17.20;10.20
44933;PMS3003;30667;43.614;1.442;2022-11-15T15:58:36;20.00;18.00;11.25
44933;PMS3003;30667;43.614;1.442;2022-11-15T16:01:02;19.00;19.00;13.00
44933;PMS3003;30667;43.614;1.442;2022-11-15T16:03:28;20.75;19.00;12.75
44933;PMS3003;30667;43.614;1.442;2022-11-15T16:05:53;16.00;15.00;10.00
44933;PMS3003;30667;43.614;1.442;2022-11-15T16:08:22;18.75;15.00;11.00
44933;PMS3003;30667;43.614;1.442;2022-11-15T16:10:49;19.20;17.20;10.20
44933;PMS3003;30667;43.614;1.442;2022-11-15T16:13:14;26.50;21.75;14.75
44933;PMS3003;30667;43.614;1.442;2022-11-15T16:15:40;21.00;17.50;12.50
44933;PMS3003;30667;43.614;1.442;2022-11-15T16:18:09;24.40;20.80;13.40
44933;PMS3003;30667;43.614;1.442;2022-11-15T16:20:41;19.40;19.00;11.20
44933;PMS3003;30667;43.614;1.442;2022-11-15T16:23:13;18.00;17.80;11.00
44933;PMS3003;30667;43.614;1.442;2022-11-15T16:25:47;15.80;15.80;11.00